Little Burnt Bay, Canada
Current Conditions -  °F | °C
As of 4:00 AM on Monday 24 Nov 2014 (Local Time) from CYQX Reporting Station
Scattered Clouds Scattered Clouds  
Wind Chill:   Ceiling: Unl
Heat Index: 23°   Visibility: 20mi
Dew Point: 16°   Wind: 18mph
Humidity: 74%   Direction: 280°W
Pressure: 30.08"   Gusts: 25mph
Location:  49.33°N, 55.08°W
Report Text: CYQX 240700Z 28016G22KT 20SM FEW160 SCT230 M05/M09 A3008 RMK AC1CI3 SLP196
Loading
Personal Weather Stations






























Interactive Weather Map New forecast layout! Learn more

10-Day Weather Forecast

Advertisements
Track Severe Weather on mobile